sensor_id;sensor_type;location;lat;lon;timestamp;pressure;altitude;pressure_sealevel;temperature;humidity
11525;BME280;5819;49.648;8.330;2023-05-22T00:01:58;99949.25;;;19.04;83.92
11525;BME280;5819;49.648;8.330;2023-05-22T00:04:26;99937.78;;;18.94;84.37
11525;BME280;5819;49.648;8.330;2023-05-22T00:06:57;99943.72;;;18.87;85.66
11525;BME280;5819;49.648;8.330;2023-05-22T00:09:25;99947.81;;;18.80;86.04
11525;BME280;5819;49.648;8.330;2023-05-22T00:11:53;99939.19;;;18.78;86.05
11525;BME280;5819;49.648;8.330;2023-05-22T00:14:21;99941.03;;;18.77;86.41
11525;BME280;5819;49.648;8.330;2023-05-22T00:16:49;99944.72;;;18.75;86.43
11525;BME280;5819;49.648;8.330;2023-05-22T00:19:16;99938.59;;;18.85;85.85
11525;BME280;5819;49.648;8.330;2023-05-22T00:21:48;99941.41;;;18.73;86.78
11525;BME280;5819;49.648;8.330;2023-05-22T00:24:18;99942.88;;;18.65;87.36
11525;BME280;5819;49.648;8.330;2023-05-22T00:26:46;99940.47;;;18.62;87.63
11525;BME280;5819;49.648;8.330;2023-05-22T00:29:14;99938.28;;;18.67;87.19
11525;BME280;5819;49.648;8.330;2023-05-22T00:31:42;99940.34;;;18.64;87.74
11525;BME280;5819;49.648;8.330;2023-05-22T00:34:10;99945.72;;;18.62;87.88
11525;BME280;5819;49.648;8.330;2023-05-22T00:36:37;99935.41;;;18.70;87.70
11525;BME280;5819;49.648;8.330;2023-05-22T00:39:05;99938.56;;;18.64;87.74
11525;BME280;5819;49.648;8.330;2023-05-22T00:41:34;99939.19;;;18.57;88.55
11525;BME280;5819;49.648;8.330;2023-05-22T00:44:04;99933.78;;;18.58;88.88
11525;BME280;5819;49.648;8.330;2023-05-22T00:46:33;99941.25;;;18.53;89.33
11525;BME280;5819;49.648;8.330;2023-05-22T00:49:03;99932.47;;;18.42;89.99
11525;BME280;5819;49.648;8.330;2023-05-22T00:51:32;99939.44;;;18.43;90.58
11525;BME280;5819;49.648;8.330;2023-05-22T00:54:03;99935.13;;;18.42;90.65
11525;BME280;5819;49.648;8.330;2023-05-22T00:56:32;99939.31;;;18.44;90.38
11525;BME280;5819;49.648;8.330;2023-05-22T00:59:02;99936.94;;;18.41;90.65
11525;BME280;5819;49.648;8.330;2023-05-22T01:01:30;99936.94;;;18.52;90.43
11525;BME280;5819;49.648;8.330;2023-05-22T01:04:00;99937.97;;;18.61;89.50
11525;BME280;5819;49.648;8.330;2023-05-22T01:06:30;99931.41;;;18.55;90.32
11525;BME280;5819;49.648;8.330;2023-05-22T01:08:59;99933.56;;;18.39;91.86
11525;BME280;5819;49.648;8.330;2023-05-22T01:11:31;99934.50;;;18.49;92.81
11525;BME280;5819;49.648;8.330;2023-05-22T01:14:05;99935.38;;;18.39;92.92
11525;BME280;5819;49.648;8.330;2023-05-22T01:16:42;99931.47;;;18.33;94.48
11525;BME280;5819;49.648;8.330;2023-05-22T01:19:31;99934.00;;;18.23;95.39
11525;BME280;5819;49.648;8.330;2023-05-22T01:22:13;99936.97;;;18.19;96.48
11525;BME280;5819;49.648;8.330;2023-05-22T01:24:57;99938.81;;;18.07;97.70
11525;BME280;5819;49.648;8.330;2023-05-22T01:27:52;99946.38;;;18.01;98.49
11525;BME280;5819;49.648;8.330;2023-05-22T01:30:42;99940.50;;;17.97;99.37
11525;BME280;5819;49.648;8.330;2023-05-22T01:33:14;99948.63;;;17.94;100.00
11525;BME280;5819;49.648;8.330;2023-05-22T01:35:47;99952.97;;;17.84;100.00
11525;BME280;5819;49.648;8.330;2023-05-22T01:38:19;99948.28;;;17.88;100.00
11525;BME280;5819;49.648;8.330;2023-05-22T01:40:48;99947.44;;;17.87;100.00
11525;BME280;5819;49.648;8.330;2023-05-22T01:43:16;99945.06;;;17.84;100.00
11525;BME280;5819;49.648;8.330;2023-05-22T01:45:45;99950.19;;;17.74;100.00
11525;BME280;5819;49.648;8.330;2023-05-22T01:48:14;99948.91;;;17.69;100.00
11525;BME280;5819;49.648;8.330;2023-05-22T01:50:42;99949.00;;;17.78;100.00
11525;BME280;5819;49.648;8.330;2023-05-22T01:53:17;99948.06;;;17.80;100.00
11525;BME280;5819;49.648;8.330;2023-05-22T01:55:50;99954.03;;;17.82;100.00
11525;BME280;5819;49.648;8.330;2023-05-22T01:58:26;99950.56;;;17.81;100.00
11525;BME280;5819;49.648;8.330;2023-05-22T02:00:57;99948.75;;;17.70;100.00
11525;BME280;5819;49.648;8.330;2023-05-22T02:03:30;99952.94;;;17.62;100.00
11525;BME280;5819;49.648;8.330;2023-05-22T02:06:00;99951.28;;;17.61;100.00
11525;BME280;5819;49.648;8.330;2023-05-22T02:08:30;99945.91;;;17.62;100.00
11525;BME280;5819;49.648;8.330;2023-05-22T02:10:59;99951.75;;;17.66;100.00
11525;BME280;5819;49.648;8.330;2023-05-22T02:13:28;99945.19;;;17.60;100.00
11525;BME280;5819;49.648;8.330;2023-05-22T02:15:58;99949.63;;;17.60;100.00
11525;BME280;5819;49.648;8.330;2023-05-22T02:18:27;99948.75;;;17.48;100.00
11525;BME280;5819;49.648;8.330;2023-05-22T02:20:56;99955.28;;;17.31;100.00
11525;BME280;5819;49.648;8.330;2023-05-22T02:23:25;99954.03;;;17.13;100.00
11525;BME280;5819;49.648;8.330;2023-05-22T02:25:55;99953.75;;;16.94;100.00
11525;BME280;5819;49.648;8.330;2023-05-22T02:28:24;99948.38;;;16.84;100.00
11525;BME280;5819;49.648;8.330;2023-05-22T02:30:52;99963.00;;;16.65;100.00
11525;BME280;5819;49.648;8.330;2023-05-22T02:33:21;99957.78;;;16.52;100.00
11525;BME280;5819;49.648;8.330;2023-05-22T02:35:49;99959.22;;;16.56;100.00
11525;BME280;5819;49.648;8.330;2023-05-22T02:38:18;99959.03;;;16.59;100.00
11525;BME280;5819;49.648;8.330;2023-05-22T02:40:46;99957.00;;;16.63;100.00
11525;BME280;5819;49.648;8.330;2023-05-22T02:43:15;99960.91;;;16.57;100.00
11525;BME280;5819;49.648;8.330;2023-05-22T02:45:43;99961.34;;;16.51;100.00
11525;BME280;5819;49.648;8.330;2023-05-22T02:48:10;99959.88;;;16.47;100.00
11525;BME280;5819;49.648;8.330;2023-05-22T02:50:40;99960.50;;;16.27;100.00
11525;BME280;5819;49.648;8.330;2023-05-22T02:53:09;99962.78;;;16.31;100.00
11525;BME280;5819;49.648;8.330;2023-05-22T02:55:38;99972.53;;;16.29;100.00
11525;BME280;5819;49.648;8.330;2023-05-22T02:58:07;99970.66;;;16.31;100.00
11525;BME280;5819;49.648;8.330;2023-05-22T03:00:37;99963.41;;;16.35;100.00
11525;BME280;5819;49.648;8.330;2023-05-22T03:03:06;99962.56;;;16.34;100.00
11525;BME280;5819;49.648;8.330;2023-05-22T03:05:33;99960.38;;;16.28;100.00
11525;BME280;5819;49.648;8.330;2023-05-22T03:08:03;99961.72;;;16.34;100.00
11525;BME280;5819;49.648;8.330;2023-05-22T03:10:32;99958.25;;;16.33;100.00
11525;BME280;5819;49.648;8.330;2023-05-22T03:13:00;99959.84;;;16.36;100.00
11525;BME280;5819;49.648;8.330;2023-05-22T03:15:28;99962.94;;;16.41;100.00
11525;BME280;5819;49.648;8.330;2023-05-22T03:18:04;99962.50;;;16.47;100.00
11525;BME280;5819;49.648;8.330;2023-05-22T03:20:32;99963.22;;;16.49;100.00
11525;BME280;5819;49.648;8.330;2023-05-22T03:23:01;99963.09;;;16.63;100.00
11525;BME280;5819;49.648;8.330;2023-05-22T03:25:30;99954.41;;;16.74;100.00
11525;BME280;5819;49.648;8.330;2023-05-22T03:27:58;99956.19;;;16.73;100.00
11525;BME280;5819;49.648;8.330;2023-05-22T03:30:30;99961.97;;;16.78;100.00
11525;BME280;5819;49.648;8.330;2023-05-22T03:33:10;99961.97;;;16.78;100.00
11525;BME280;5819;49.648;8.330;2023-05-22T03:35:38;99970.50;;;16.69;100.00
11525;BME280;5819;49.648;8.330;2023-05-22T03:38:06;99970.91;;;16.52;100.00
11525;BME280;5819;49.648;8.330;2023-05-22T03:40:35;99968.56;;;16.36;100.00
11525;BME280;5819;49.648;8.330;2023-05-22T03:43:04;99973.09;;;16.22;100.00
11525;BME280;5819;49.648;8.330;2023-05-22T03:45:32;99970.13;;;16.03;100.00
11525;BME280;5819;49.648;8.330;2023-05-22T03:48:01;99970.34;;;15.87;100.00
11525;BME280;5819;49.648;8.330;2023-05-22T03:50:29;99976.31;;;15.89;100.00
11525;BME280;5819;49.648;8.330;2023-05-22T03:52:57;99968.25;;;15.92;100.00
11525;BME280;5819;49.648;8.330;2023-05-22T03:55:24;99970.66;;;15.95;100.00
11525;BME280;5819;49.648;8.330;2023-05-22T03:57:54;99974.28;;;16.05;100.00
11525;BME280;5819;49.648;8.330;2023-05-22T04:00:22;99973.91;;;15.99;100.00
11525;BME280;5819;49.648;8.330;2023-05-22T04:03:01;99974.97;;;15.96;100.00
11525;BME280;5819;49.648;8.330;2023-05-22T04:05:29;99977.13;;;16.02;100.00
11525;BME280;5819;49.648;8.330;2023-05-22T04:07:57;99972.84;;;16.01;100.00
11525;BME280;5819;49.648;8.330;2023-05-22T04:10:26;99982.72;;;15.98;100.00
11525;BME280;5819;49.648;8.330;2023-05-22T04:12:55;99985.56;;;15.95;100.00
11525;BME280;5819;49.648;8.330;2023-05-22T04:15:23;99984.09;;;15.90;100.00
11525;BME280;5819;49.648;8.330;2023-05-22T04:17:51;99989.13;;;15.93;100.00
11525;BME280;5819;49.648;8.330;2023-05-22T04:20:20;99985.47;;;15.96;100.00
11525;BME280;5819;49.648;8.330;2023-05-22T04:22:49;99995.81;;;15.98;100.00
11525;BME280;5819;49.648;8.330;2023-05-22T04:25:17;99991.09;;;16.03;100.00
11525;BME280;5819;49.648;8.330;2023-05-22T04:27:45;99997.09;;;16.05;100.00
11525;BME280;5819;49.648;8.330;2023-05-22T04:30:15;99996.22;;;16.17;100.00
11525;BME280;5819;49.648;8.330;2023-05-22T04:32:44;99996.00;;;16.20;100.00
11525;BME280;5819;49.648;8.330;2023-05-22T04:35:12;100004.09;;;16.17;100.00
11525;BME280;5819;49.648;8.330;2023-05-22T04:37:44;100003.50;;;16.01;100.00
11525;BME280;5819;49.648;8.330;2023-05-22T04:40:12;100010.94;;;16.07;100.00
11525;BME280;5819;49.648;8.330;2023-05-22T04:42:43;100012.00;;;16.04;100.00
11525;BME280;5819;49.648;8.330;2023-05-22T04:45:12;100010.28;;;16.16;100.00
11525;BME280;5819;49.648;8.330;2023-05-22T04:47:41;100020.34;;;16.22;100.00
11525;BME280;5819;49.648;8.330;2023-05-22T04:50:10;100015.84;;;16.24;100.00
11525;BME280;5819;49.648;8.330;2023-05-22T04:52:41;100011.19;;;16.27;100.00
11525;BME280;5819;49.648;8.330;2023-05-22T04:55:09;100011.06;;;16.29;100.00
11525;BME280;5819;49.648;8.330;2023-05-22T04:57:38;100008.75;;;16.37;100.00
11525;BME280;5819;49.648;8.330;2023-05-22T05:00:07;100009.53;;;16.50;100.00
11525;BME280;5819;49.648;8.330;2023-05-22T05:02:37;100010.38;;;16.63;100.00
11525;BME280;5819;49.648;8.330;2023-05-22T05:05:07;100007.75;;;16.63;100.00
11525;BME280;5819;49.648;8.330;2023-05-22T05:07:37;100010.38;;;16.63;100.00
11525;BME280;5819;49.648;8.330;2023-05-22T05:10:07;100012.38;;;16.60;100.00
11525;BME280;5819;49.648;8.330;2023-05-22T05:12:35;100014.88;;;16.61;100.00
11525;BME280;5819;49.648;8.330;2023-05-22T05:15:05;100019.59;;;16.69;100.00
11525;BME280;5819;49.648;8.330;2023-05-22T05:17:33;100013.50;;;16.68;100.00
11525;BME280;5819;49.648;8.330;2023-05-22T05:20:03;100019.59;;;16.69;100.00
11525;BME280;5819;49.648;8.330;2023-05-22T05:22:34;100020.38;;;16.82;100.00
11525;BME280;5819;49.648;8.330;2023-05-22T05:25:04;100020.88;;;16.87;100.00
11525;BME280;5819;49.648;8.330;2023-05-22T05:27:35;100021.38;;;16.92;100.00
11525;BME280;5819;49.648;8.330;2023-05-22T05:30:03;100015.41;;;17.01;100.00
11525;BME280;5819;49.648;8.330;2023-05-22T05:33:07;100013.38;;;17.28;100.00
11525;BME280;5819;49.648;8.330;2023-05-22T05:35:41;100016.97;;;17.39;100.00
11525;BME280;5819;49.648;8.330;2023-05-22T05:38:12;100016.78;;;17.53;100.00
11525;BME280;5819;49.648;8.330;2023-05-22T05:40:42;100013.41;;;17.51;100.00
11525;BME280;5819;49.648;8.330;2023-05-22T05:43:11;100015.38;;;17.60;100.00
11525;BME280;5819;49.648;8.330;2023-05-22T05:45:41;100016.94;;;17.73;100.00
11525;BME280;5819;49.648;8.330;2023-05-22T05:48:10;100013.34;;;17.86;100.00
11525;BME280;5819;49.648;8.330;2023-05-22T05:50:42;100016.47;;;18.02;100.00
11525;BME280;5819;49.648;8.330;2023-05-22T05:53:10;100014.66;;;18.02;100.00
11525;BME280;5819;49.648;8.330;2023-05-22T05:55:43;100014.66;;;18.02;100.00
11525;BME280;5819;49.648;8.330;2023-05-22T05:58:12;100015.13;;;18.18;100.00
11525;BME280;5819;49.648;8.330;2023-05-22T06:00:50;100015.84;;;18.32;100.00
11525;BME280;5819;49.648;8.330;2023-05-22T06:03:18;100017.50;;;18.44;100.00
11525;BME280;5819;49.648;8.330;2023-05-22T06:06:02;100008.97;;;18.51;100.00
11525;BME280;5819;49.648;8.330;2023-05-22T06:09:03;100010.34;;;18.78;100.00
11525;BME280;5819;49.648;8.330;2023-05-22T06:11:46;100015.28;;;18.71;100.00
11525;BME280;5819;49.648;8.330;2023-05-22T06:14:14;100022.84;;;18.76;100.00
11525;BME280;5819;49.648;8.330;2023-05-22T06:16:44;100022.50;;;18.58;100.00
11525;BME280;5819;49.648;8.330;2023-05-22T06:19:13;100018.06;;;18.69;100.00
11525;BME280;5819;49.648;8.330;2023-05-22T06:21:42;100021.66;;;18.68;100.00
11525;BME280;5819;49.648;8.330;2023-05-22T06:24:10;100022.00;;;18.75;100.00
11525;BME280;5819;49.648;8.330;2023-05-22T06:26:38;100021.81;;;18.88;100.00
11525;BME280;5819;49.648;8.330;2023-05-22T06:29:07;100023.00;;;18.95;100.00
11525;BME280;5819;49.648;8.330;2023-05-22T06:31:37;100024.63;;;19.07;100.00
11525;BME280;5819;49.648;8.330;2023-05-22T06:34:06;100018.38;;;19.08;100.00
11525;BME280;5819;49.648;8.330;2023-05-22T06:36:42;100021.81;;;19.20;100.00
11525;BME280;5819;49.648;8.330;2023-05-22T06:39:15;100016.66;;;19.18;100.00
11525;BME280;5819;49.648;8.330;2023-05-22T06:42:10;100007.09;;;19.17;100.00
11525;BME280;5819;49.648;8.330;2023-05-22T06:44:58;100013.88;;;19.20;100.00
11525;BME280;5819;49.648;8.330;2023-05-22T06:47:35;100021.53;;;19.23;100.00
11525;BME280;5819;49.648;8.330;2023-05-22T06:50:03;100017.09;;;19.23;100.00
11525;BME280;5819;49.648;8.330;2023-05-22T06:52:31;100021.50;;;19.13;100.00
11525;BME280;5819;49.648;8.330;2023-05-22T06:55:01;100018.03;;;19.33;100.00
11525;BME280;5819;49.648;8.330;2023-05-22T06:57:39;100018.44;;;19.38;100.00
11525;BME280;5819;49.648;8.330;2023-05-22T07:00:11;100016.88;;;19.47;100.00
11525;BME280;5819;49.648;8.330;2023-05-22T07:03:08;100021.19;;;19.48;100.00
11525;BME280;5819;49.648;8.330;2023-05-22T07:05:45;100018.28;;;19.51;100.00
11525;BME280;5819;49.648;8.330;2023-05-22T07:08:13;100025.94;;;19.54;100.00
11525;BME280;5819;49.648;8.330;2023-05-22T07:10:42;100031.59;;;19.70;100.00
11525;BME280;5819;49.648;8.330;2023-05-22T07:13:10;100031.91;;;19.77;100.00
11525;BME280;5819;49.648;8.330;2023-05-22T07:15:40;100027.84;;;19.93;100.00
11525;BME280;5819;49.648;8.330;2023-05-22T07:18:11;100027.34;;;20.09;100.00
11525;BME280;5819;49.648;8.330;2023-05-22T07:20:41;100026.78;;;20.15;100.00
11525;BME280;5819;49.648;8.330;2023-05-22T07:23:16;100028.56;;;20.05;100.00
11525;BME280;5819;49.648;8.330;2023-05-22T07:25:44;100034.03;;;20.13;97.92
11525;BME280;5819;49.648;8.330;2023-05-22T07:28:14;100033.66;;;20.27;98.27
11525;BME280;5819;49.648;8.330;2023-05-22T07:31:01;100037.03;;;20.29;96.57
11525;BME280;5819;49.648;8.330;2023-05-22T07:33:30;100030.53;;;20.43;94.33
11525;BME280;5819;49.648;8.330;2023-05-22T07:35:58;100036.69;;;20.23;96.36
11525;BME280;5819;49.648;8.330;2023-05-22T07:38:26;100034.59;;;20.57;93.79
11525;BME280;5819;49.648;8.330;2023-05-22T07:40:58;100026.72;;;20.85;91.23
11525;BME280;5819;49.648;8.330;2023-05-22T07:43:29;100038.63;;;20.61;93.49
11525;BME280;5819;49.648;8.330;2023-05-22T07:45:58;100030.19;;;20.86;92.82
11525;BME280;5819;49.648;8.330;2023-05-22T07:48:35;100016.00;;;21.25;92.19
11525;BME280;5819;49.648;8.330;2023-05-22T07:51:03;100030.91;;;21.17;94.10
11525;BME280;5819;49.648;8.330;2023-05-22T07:53:31;100023.50;;;21.01;87.83
11525;BME280;5819;49.648;8.330;2023-05-22T07:56:01;100028.78;;;21.01;85.98
11525;BME280;5819;49.648;8.330;2023-05-22T07:58:30;100030.72;;;20.80;85.34
11525;BME280;5819;49.648;8.330;2023-05-22T08:01:00;100036.16;;;20.88;86.23
11525;BME280;5819;49.648;8.330;2023-05-22T08:03:28;100035.78;;;21.12;84.81
11525;BME280;5819;49.648;8.330;2023-05-22T08:05:57;100034.09;;;21.30;90.04
11525;BME280;5819;49.648;8.330;2023-05-22T08:08:25;100029.47;;;21.51;85.90
11525;BME280;5819;49.648;8.330;2023-05-22T08:10:56;100030.41;;;21.60;85.48
11525;BME280;5819;49.648;8.330;2023-05-22T08:13:30;100021.63;;;21.69;83.67
11525;BME280;5819;49.648;8.330;2023-05-22T08:15:58;100020.72;;;21.87;82.38
11525;BME280;5819;49.648;8.330;2023-05-22T08:18:27;100019.44;;;22.01;82.01
11525;BME280;5819;49.648;8.330;2023-05-22T08:20:57;100022.97;;;22.19;82.81
11525;BME280;5819;49.648;8.330;2023-05-22T08:23:27;100022.81;;;22.30;78.26
11525;BME280;5819;49.648;8.330;2023-05-22T08:25:55;100025.16;;;22.51;78.36
11525;BME280;5819;49.648;8.330;2023-05-22T08:28:23;100026.53;;;22.37;77.43
11525;BME280;5819;49.648;8.330;2023-05-22T08:30:51;100027.16;;;22.67;75.42
11525;BME280;5819;49.648;8.330;2023-05-22T08:33:21;100019.25;;;22.84;76.26
11525;BME280;5819;49.648;8.330;2023-05-22T08:35:49;100023.34;;;23.14;74.54
11525;BME280;5819;49.648;8.330;2023-05-22T08:38:19;100018.09;;;23.22;75.45
11525;BME280;5819;49.648;8.330;2023-05-22T08:40:47;100014.31;;;23.25;74.18
11525;BME280;5819;49.648;8.330;2023-05-22T08:43:18;100014.81;;;23.46;75.87
11525;BME280;5819;49.648;8.330;2023-05-22T08:45:51;100013.91;;;23.38;73.35
11525;BME280;5819;49.648;8.330;2023-05-22T08:48:27;100012.16;;;23.46;74.05
11525;BME280;5819;49.648;8.330;2023-05-22T08:50:57;100013.97;;;23.28;75.19
11525;BME280;5819;49.648;8.330;2023-05-22T08:53:33;100010.22;;;23.56;76.79
11525;BME280;5819;49.648;8.330;2023-05-22T08:56:02;100015.41;;;23.40;77.80
11525;BME280;5819;49.648;8.330;2023-05-22T08:58:33;100009.25;;;23.40;75.62
11525;BME280;5819;49.648;8.330;2023-05-22T09:01:02;100011.72;;;23.51;75.99
11525;BME280;5819;49.648;8.330;2023-05-22T09:03:34;100008.47;;;23.21;75.15
11525;BME280;5819;49.648;8.330;2023-05-22T09:06:03;100015.38;;;23.14;77.15
11525;BME280;5819;49.648;8.330;2023-05-22T09:08:37;100014.03;;;23.10;78.09
11525;BME280;5819;49.648;8.330;2023-05-22T09:11:05;100015.97;;;23.26;77.18
11525;BME280;5819;49.648;8.330;2023-05-22T09:13:37;100004.72;;;23.50;75.81
11525;BME280;5819;49.648;8.330;2023-05-22T09:16:07;100010.94;;;23.41;77.54
11525;BME280;5819;49.648;8.330;2023-05-22T09:18:36;100012.00;;;23.48;75.87
11525;BME280;5819;49.648;8.330;2023-05-22T09:21:04;100005.63;;;23.58;73.77
11525;BME280;5819;49.648;8.330;2023-05-22T09:23:58;100003.19;;;23.47;72.72
11525;BME280;5819;49.648;8.330;2023-05-22T09:26:26;100007.59;;;23.39;70.82
11525;BME280;5819;49.648;8.330;2023-05-22T09:28:55;100003.94;;;23.40;68.98
11525;BME280;5819;49.648;8.330;2023-05-22T09:31:27;100003.75;;;23.51;68.18
11525;BME280;5819;49.648;8.330;2023-05-22T09:33:55;99998.38;;;24.44;67.49
11525;BME280;5819;49.648;8.330;2023-05-22T09:36:29;100002.03;;;24.35;70.90
11525;BME280;5819;49.648;8.330;2023-05-22T09:39:01;99993.00;;;24.86;66.34
11525;BME280;5819;49.648;8.330;2023-05-22T09:41:33;99983.44;;;24.76;64.53
11525;BME280;5819;49.648;8.330;2023-05-22T09:44:06;99986.63;;;25.36;62.90
11525;BME280;5819;49.648;8.330;2023-05-22T09:46:39;99988.78;;;25.48;64.10
11525;BME280;5819;49.648;8.330;2023-05-22T09:49:08;99995.13;;;25.64;62.88
11525;BME280;5819;49.648;8.330;2023-05-22T09:51:39;99975.88;;;26.39;60.56
11525;BME280;5819;49.648;8.330;2023-05-22T09:54:10;99971.72;;;26.60;58.25
11525;BME280;5819;49.648;8.330;2023-05-22T09:56:41;99973.06;;;26.86;57.37
11525;BME280;5819;49.648;8.330;2023-05-22T09:59:12;99967.63;;;27.55;57.31
11525;BME280;5819;49.648;8.330;2023-05-22T10:01:44;99951.72;;;28.83;53.45
11525;BME280;5819;49.648;8.330;2023-05-22T10:04:15;99966.09;;;28.25;55.65
11525;BME280;5819;49.648;8.330;2023-05-22T10:06:49;99949.25;;;28.46;54.05
11525;BME280;5819;49.648;8.330;2023-05-22T10:09:23;99939.81;;;30.17;52.27
11525;BME280;5819;49.648;8.330;2023-05-22T10:11:57;99939.78;;;31.24;48.82
11525;BME280;5819;49.648;8.330;2023-05-22T10:14:30;99944.53;;;31.15;48.51
11525;BME280;5819;49.648;8.330;2023-05-22T10:16:59;99939.28;;;31.79;48.78
11525;BME280;5819;49.648;8.330;2023-05-22T10:19:29;99932.47;;;32.59;47.15
11525;BME280;5819;49.648;8.330;2023-05-22T10:21:59;99942.00;;;31.46;47.00
11525;BME280;5819;49.648;8.330;2023-05-22T10:24:30;99937.72;;;32.47;46.90
11525;BME280;5819;49.648;8.330;2023-05-22T10:26:58;99932.91;;;32.25;46.48
11525;BME280;5819;49.648;8.330;2023-05-22T10:29:32;99925.84;;;32.24;45.99
11525;BME280;5819;49.648;8.330;2023-05-22T10:32:06;99947.00;;;30.90;50.46
11525;BME280;5819;49.648;8.330;2023-05-22T10:34:50;99934.56;;;31.68;50.10
11525;BME280;5819;49.648;8.330;2023-05-22T10:37:37;99936.47;;;31.41;47.94
11525;BME280;5819;49.648;8.330;2023-05-22T10:40:12;99919.56;;;31.92;46.12
11525;BME280;5819;49.648;8.330;2023-05-22T10:42:42;99922.25;;;32.36;45.50
11525;BME280;5819;49.648;8.330;2023-05-22T10:45:11;99927.44;;;31.93;48.84
11525;BME280;5819;49.648;8.330;2023-05-22T10:47:41;99921.91;;;31.75;47.41
11525;BME280;5819;49.648;8.330;2023-05-22T10:50:10;99911.81;;;32.46;45.25
11525;BME280;5819;49.648;8.330;2023-05-22T10:52:39;99914.50;;;32.53;46.07
11525;BME280;5819;49.648;8.330;2023-05-22T10:55:07;99916.13;;;32.54;46.08
11525;BME280;5819;49.648;8.330;2023-05-22T10:57:37;99916.75;;;32.18;46.18
11525;BME280;5819;49.648;8.330;2023-05-22T11:00:10;99898.97;;;33.05;45.05
11525;BME280;5819;49.648;8.330;2023-05-22T11:02:43;99909.59;;;33.42;45.75
11525;BME280;5819;49.648;8.330;2023-05-22T11:05:32;99912.31;;;31.92;46.49
11525;BME280;5819;49.648;8.330;2023-05-22T11:08:11;99913.88;;;32.51;48.35
11525;BME280;5819;49.648;8.330;2023-05-22T11:11:09;99903.16;;;32.76;46.03
11525;BME280;5819;49.648;8.330;2023-05-22T11:13:40;99898.72;;;33.31;45.41
11525;BME280;5819;49.648;8.330;2023-05-22T11:16:09;99884.88;;;33.64;44.88
11525;BME280;5819;49.648;8.330;2023-05-22T11:18:38;99909.19;;;31.18;47.78
11525;BME280;5819;49.648;8.330;2023-05-22T11:21:09;99902.13;;;32.39;48.21
11525;BME280;5819;49.648;8.330;2023-05-22T11:23:39;99891.97;;;32.97;47.66
11525;BME280;5819;49.648;8.330;2023-05-22T11:26:20;99891.22;;;32.59;44.68
11525;BME280;5819;49.648;8.330;2023-05-22T11:28:54;99901.63;;;31.73;47.15
11525;BME280;5819;49.648;8.330;2023-05-22T11:31:23;99906.81;;;31.68;47.56
11525;BME280;5819;49.648;8.330;2023-05-22T11:33:52;99888.84;;;32.13;46.07
11525;BME280;5819;49.648;8.330;2023-05-22T11:36:22;99886.81;;;32.39;46.03
11525;BME280;5819;49.648;8.330;2023-05-22T11:38:56;99881.66;;;32.94;45.56
11525;BME280;5819;49.648;8.330;2023-05-22T11:41:28;99887.34;;;33.29;46.93
11525;BME280;5819;49.648;8.330;2023-05-22T11:44:01;99876.78;;;33.03;46.86
11525;BME280;5819;49.648;8.330;2023-05-22T11:46:29;99868.63;;;33.34;45.64
11525;BME280;5819;49.648;8.330;2023-05-22T11:48:58;99876.19;;;33.62;45.25
11525;BME280;5819;49.648;8.330;2023-05-22T11:51:27;99879.72;;;32.76;45.21
11525;BME280;5819;49.648;8.330;2023-05-22T11:53:56;99881.66;;;32.69;45.01
11525;BME280;5819;49.648;8.330;2023-05-22T11:56:24;99881.28;;;33.09;45.36
11525;BME280;5819;49.648;8.330;2023-05-22T11:58:51;99884.81;;;32.28;45.17
11525;BME280;5819;49.648;8.330;2023-05-22T12:01:21;99883.91;;;32.10;45.59
11525;BME280;5819;49.648;8.330;2023-05-22T12:03:50;99870.41;;;32.97;43.87
11525;BME280;5819;49.648;8.330;2023-05-22T12:06:18;99877.69;;;32.72;45.79
11525;BME280;5819;49.648;8.330;2023-05-22T12:08:47;99872.22;;;32.54;45.75
11525;BME280;5819;49.648;8.330;2023-05-22T12:11:15;99865.97;;;33.27;44.75
11525;BME280;5819;49.648;8.330;2023-05-22T12:13:43;99859.53;;;32.85;44.16
11525;BME280;5819;49.648;8.330;2023-05-22T12:16:18;99857.16;;;33.20;44.26
11525;BME280;5819;49.648;8.330;2023-05-22T12:18:53;99851.28;;;33.60;44.02
11525;BME280;5819;49.648;8.330;2023-05-22T12:21:21;99855.31;;;33.87;44.01
11525;BME280;5819;49.648;8.330;2023-05-22T12:23:50;99860.19;;;32.81;45.04
11525;BME280;5819;49.648;8.330;2023-05-22T12:26:18;99861.19;;;32.62;45.60
11525;BME280;5819;49.648;8.330;2023-05-22T12:28:47;99865.75;;;32.30;44.54
11525;BME280;5819;49.648;8.330;2023-05-22T12:31:19;99860.91;;;32.38;45.95
11525;BME280;5819;49.648;8.330;2023-05-22T12:33:53;99858.00;;;32.40;46.09
11525;BME280;5819;49.648;8.330;2023-05-22T12:36:32;99848.50;;;32.69;45.86
11525;BME280;5819;49.648;8.330;2023-05-22T12:39:00;99856.09;;;31.71;45.77
11525;BME280;5819;49.648;8.330;2023-05-22T12:41:28;99847.44;;;32.38;44.68
11525;BME280;5819;49.648;8.330;2023-05-22T12:43:56;99851.59;;;32.10;45.91
11525;BME280;5819;49.648;8.330;2023-05-22T12:46:24;99848.38;;;32.82;44.52
11525;BME280;5819;49.648;8.330;2023-05-22T12:48:54;99852.44;;;31.59;45.20
11525;BME280;5819;49.648;8.330;2023-05-22T12:51:24;99861.44;;;31.07;46.20
11525;BME280;5819;49.648;8.330;2023-05-22T12:53:55;99857.25;;;32.33;44.88
11525;BME280;5819;49.648;8.330;2023-05-22T12:56:22;99848.13;;;31.96;43.77
11525;BME280;5819;49.648;8.330;2023-05-22T12:58:51;99850.22;;;31.30;44.31
11525;BME280;5819;49.648;8.330;2023-05-22T13:01:19;99850.44;;;31.28;47.29
11525;BME280;5819;49.648;8.330;2023-05-22T13:03:50;99846.47;;;31.95;47.35
11525;BME280;5819;49.648;8.330;2023-05-22T13:06:20;99854.72;;;32.00;46.18
11525;BME280;5819;49.648;8.330;2023-05-22T13:08:48;99864.69;;;30.17;53.15
11525;BME280;5819;49.648;8.330;2023-05-22T13:11:16;99852.78;;;30.85;44.69
11525;BME280;5819;49.648;8.330;2023-05-22T13:13:45;99861.22;;;30.82;48.22
11525;BME280;5819;49.648;8.330;2023-05-22T13:16:13;99867.41;;;30.37;48.74
11525;BME280;5819;49.648;8.330;2023-05-22T13:18:41;99853.59;;;30.73;49.29
11525;BME280;5819;49.648;8.330;2023-05-22T13:21:09;99850.09;;;30.52;45.40
11525;BME280;5819;49.648;8.330;2023-05-22T13:23:40;99860.47;;;29.88;49.82